Hanover, Illinois
Current Conditions -  °F | °C
As of 12:35 PM on Thursday 27 Nov 2014 (Local Time) from KSFY Reporting Station
Overcast Overcast  
Wind Chill: -9°   Ceiling: 2800
Heat Index: -4°   Visibility: 10mi
Dew Point: -10°   Wind: 8mph
Humidity: 63%   Direction: 290°WNW
Pressure: 30.4"   Gusts: NA
Location:  42.26°N, 90.28°W
Report Text: KSFY 271835Z AUTO 29007KT 10SM OVC028 M04/M10 A3040 RMK AO2 T10401102
Loading
Personal Weather Stations






























Interactive Weather Map New forecast layout! Learn more

10-Day Weather Forecast

Advertisements
Track Severe Weather on mobile